Flight Track Log - Related Links

Times and Time Zones

All times are in EDT time to prevent confusion due to time zone crossing. See the SWA2624 flight status page for this flight to view local times or setup timezone preferences in your user account.

Time Position Orientation Groundspeed Altitude Reporting Facility
EDT Latitude Longitude Course Direction KTS MPH feet Rate Location/Type
Sun 08:56:20 PM 35.1489 -101.6297 101° East 251 289 7,600  Level Albuquerque Center
Sun 08:57:21 PM 35.1103 -101.5394 118° Southeast 286 329 9,800 2,341 Climbing Albuquerque Center
Sun 08:58:23 PM 35.0578 -101.4139 117° Southeast 341 392 12,400 2,323 Climbing Albuquerque Center
Sun 08:59:25 PM 35.0117 -101.2969 116° Southeast 370 426 14,600 2,390 Climbing Albuquerque Center
Sun 09:00:00 PM 35.1226 -101.4941 107° East  Level Estimated
Sun 09:00:26 PM 34.9619 -101.1736 116° Southeast 396 456 17,300  Level Albuquerque Center
Sun 09:01:00 PM 35.1040 -101.3750 101° East  Level FlightAware Approximate
Sun 09:01:28 PM 34.9122 -101.0503 116° Southeast 403 464 20,000  Level Albuquerque Center
Sun 09:02:30 PM 34.8614 -100.9261 116° Southeast 407 468 22,100 2,000 Climbing Albuquerque Center
Sun 09:03:31 PM 34.8108 -100.8000 116° Southeast 412 474 24,100 1,951 Climbing Albuquerque Center
Sun 09:04:33 PM 34.7581 -100.6714 117° Southeast 418 481 26,100 1,742 Climbing Albuquerque Center
Sun 09:05:35 PM 34.6939 -100.5153 117° Southeast 425 489 27,700 1,366 Climbing Albuquerque Center
Sun 09:06:36 PM 34.6383 -100.3789 116° Southeast 438 504 28,900 1,171 Climbing Albuquerque Center
Sun 09:07:38 PM 34.5808 -100.2403 117° Southeast 451 519 30,100 1,220 Climbing Albuquerque Center
Sun 09:08:39 PM 34.5211 -100.1003 117° Southeast 465 535 31,400 1,394 Climbing Albuquerque Center
Sun 09:09:17 PM 34.4864 -100.0161 117° Southeast 454 522 32,400 980 Climbing Fort Worth Center
Sun 09:10:17 PM 34.4286 -99.8758 117° Southeast 454 522 33,000 300 Climbing Fort Worth Center
Sun 09:11:17 PM 34.3647 -99.7281 118° Southeast 470 541 33,000  Level Fort Worth Center
Sun 09:12:17 PM 34.3006 -99.5756 117° Southeast 475 547 33,000  Level Fort Worth Center
Sun 09:13:17 PM 34.2364 -99.4308 118° Southeast 481 554 33,000  Level Fort Worth Center
Sun 09:14:17 PM 34.1739 -99.2811 117° Southeast 481 554 33,000  Level Fort Worth Center
Sun 09:15:17 PM 34.1133 -99.1369 117° Southeast 476 548 33,000  Level Fort Worth Center
Sun 09:16:17 PM 34.0528 -98.9928 117° Southeast 482 555 33,000  Level Fort Worth Center
Sun 09:17:17 PM 33.9917 -98.8539 118° Southeast 476 548 33,000  Level Fort Worth Center
Sun 09:18:17 PM 33.9286 -98.7103 118° Southeast 476 548 33,000 -250 Level Fort Worth Center
Sun 09:19:17 PM 33.8653 -98.5667 118° Southeast 482 555 32,500 -1,200 Descending Fort Worth Center
Sun 09:20:17 PM 33.7933 -98.4383 124° Southeast 477 549 30,600 -2,500 Descending Fort Worth Center
Sun 09:21:17 PM 33.7214 -98.3125 124° Southeast 466 536 27,500 -3,100 Descending Fort Worth Center
Sun 09:22:17 PM 33.6533 -98.1844 123° Southeast 456 525 24,400 -2,850 Descending Fort Worth Center
Sun 09:23:17 PM 33.5914 -98.0767 125° Southeast 445 512 21,800 -2,650 Descending Fort Worth Center
Sun 09:24:17 PM 33.5169 -97.9492 125° Southeast 435 501 19,100 -2,500 Descending Fort Worth Center
Sun 09:25:17 PM 33.4631 -97.8517 124° Southeast 411 473 16,800 -2,300 Descending Fort Worth Center
Sun 09:26:17 PM 33.3967 -97.7319 124° Southeast 398 458 14,500 -2,100 Descending Fort Worth Center
Sun 09:27:17 PM 33.3425 -97.6347 124° Southeast 393 452 12,600 -1,750 Descending Fort Worth Center
Sun 09:28:17 PM 33.2842 -97.5328 124° Southeast 382 440 11,000 -865 Descending Fort Worth Center
Sun 09:29:08 PM 33.2167 -97.4500 134° Southeast 369 425 11,000  Level Dallas / Fort Worth TRACON
Sun 09:30:09 PM 33.1500 -97.3667 134° Southeast 350 403 11,000  Level Dallas / Fort Worth TRACON
Sun 09:31:14 PM 33.0833 -97.2833 134° Southeast 318 366 11,000  Level Dallas / Fort Worth TRACON
Sun 09:32:08 PM 33.0167 -97.2167 140° Southeast 304 350 11,000 -105 Level Dallas / Fort Worth TRACON
Sun 09:33:08 PM 32.9667 -97.1500 132° Southeast 269 310 10,800 -1,140 Descending Dallas / Fort Worth TRACON
Sun 09:34:09 PM 32.9167 -97.0833 132° Southeast 281 323 8,700 -1,934 Descending Dallas / Fort Worth TRACON
Sun 09:35:09 PM 32.8667 -97.0167 132° Southeast 244 281 6,900 -2,064 Descending Dallas / Fort Worth TRACON
Sun 09:36:14 PM 32.8167 -96.9500 132° Southeast 237 273 4,400 -1,440 Descending Dallas / Fort Worth TRACON
Sun 09:37:14 PM 32.7667 -96.9167 151° Southeast 193 222 3,900 -700 Descending Dallas / Fort Worth TRACON
Sun 09:38:14 PM 32.7333 -96.8667 128° Southeast 187 215 3,000 -474 Descending Dallas / Fort Worth TRACON
Sun 09:39:08 PM 32.7000 -96.8333 140° Southeast 193 222 3,000 -104 Level Dallas / Fort Worth TRACON
Sun 09:40:09 PM 32.7000 -96.7667 90° East 196 226 2,800 -446 Descending Dallas / Fort Worth TRACON
Sun 09:41:09 PM 32.7500 -96.7500 16° North 175 201 2,100 -432 Descending Dallas / Fort Worth TRACON
Sun 09:42:14 PM 32.7833 -96.7833 320° Northwest 148 170 1,900 -480 Descending Dallas / Fort Worth TRACON
Sun 09:43:14 PM 32.8167 -96.8167 320° Northwest 126 145 1,100 -250 Descending Dallas / Fort Worth TRACON
Sun 09:44:38 PM 32.8500 -96.8500 320° Northwest 182 209 1,300 613 Climbing Dallas / Fort Worth TRACON
Sun 09:46:20 PM 32.9333 -96.8833 341° North 211 243 3,000 626 Climbing Dallas / Fort Worth TRACON
Sun 09:47:21 PM 32.9500 -96.8167 73° East 215 247 3,000  Level Dallas / Fort Worth TRACON
Sun 09:48:09 PM 32.9333 -96.7667 112° Southeast 231 266 3,000  Level Dallas / Fort Worth TRACON
Sun 09:49:21 PM 32.8833 -96.7000 132° Southeast 194 223 3,000 -366 Level Dallas / Fort Worth TRACON
Sun 09:50:20 PM 32.8500 -96.6833 157° South 183 211 2,200 -474 Descending Dallas / Fort Worth TRACON
Sun 09:51:15 PM 32.8167 -96.7333 232° Southwest 164 189 2,100 -313 Descending Dallas / Fort Worth TRACON
Sun 09:52:15 PM 32.8167 -96.7833 270° West 130 150 1,600 -555 Descending Dallas / Fort Worth TRACON
Sun 09:53:14 PM 32.8167 -96.8167 270° West 136 157 1,000 -610 Descending Dallas / Fort Worth TRACON

Login

Don't have an account? Register now (free) for customized features, flight alerts, and more!